Providence Village, Texas
Current Conditions -  °F | °C
As of 4:53 PM on Wednesday 26 Nov 2014 (Local Time) from KDTO Reporting Station
Clear Clear  
Wind Chill: 59°   Ceiling: Unl
Heat Index: 59°   Visibility: 10mi
Dew Point: 34°   Wind: 7mph
Humidity: 39%   Direction: 340°NNW
Pressure: 30.23"   Gusts: NA
Location:  33.2863°N, 96.9901°W
Report Text: KDTO 262253Z 34006KT 10SM CLR 15/01 A3023 RMK AO2 SLP237 T01500011
Loading
Personal Weather Stations






























Interactive Weather Map New forecast layout! Learn more

10-Day Weather Forecast

Advertisements
Track Severe Weather on mobile